createdAt,value
2023-03-19T00:02:27.324Z,7.68
2023-03-19T00:07:28.966Z,6.93
2023-03-19T00:12:30.485Z,7.68
2023-03-19T00:17:32.211Z,7.30
2023-03-19T00:22:33.751Z,7.45
2023-03-19T00:27:37.358Z,7.97
2023-03-19T00:32:39.521Z,7.47
2023-03-19T00:37:41.827Z,7.05
2023-03-19T00:42:44.793Z,7.90
2023-03-19T00:47:46.355Z,6.75
2023-03-19T00:52:48.201Z,8.07
2023-03-19T00:57:49.765Z,7.97
2023-03-19T01:02:51.720Z,7.68
2023-03-19T01:07:53.341Z,8.75
2023-03-19T01:12:54.954Z,8.32
2023-03-19T01:17:57.047Z,8.23
2023-03-19T01:22:58.835Z,7.78
2023-03-19T01:28:00.459Z,8.35
2023-03-19T01:33:02.123Z,8.60
2023-03-19T01:38:22.093Z,8.18
2023-03-19T01:43:29.557Z,8.20
2023-03-19T01:48:55.054Z,8.43
2023-03-19T01:54:00.619Z,8.02
2023-03-19T01:59:22.064Z,8.40
2023-03-19T02:04:44.749Z,8.63
2023-03-19T02:09:46.939Z,9.40
2023-03-19T02:14:48.785Z,8.50
2023-03-19T02:20:00.031Z,9.40
2023-03-19T02:25:24.673Z,8.40
2023-03-19T02:30:33.062Z,7.38
2023-03-19T02:35:40.465Z,7.00
2023-03-19T02:41:01.618Z,7.55
2023-03-19T02:46:05.797Z,8.50
2023-03-19T02:51:07.433Z,8.50
2023-03-19T02:56:08.978Z,8.85
2023-03-19T03:01:11.024Z,9.02
2023-03-19T03:06:12.818Z,9.10
2023-03-19T03:11:15.480Z,9.13
2023-03-19T03:16:17.373Z,8.98
2023-03-19T03:21:21.311Z,8.68
2023-03-19T03:26:23.009Z,9.68
2023-03-19T03:31:24.598Z,9.88
2023-03-19T03:36:27.440Z,8.88
2023-03-19T03:41:28.977Z,8.50
2023-03-19T03:46:30.703Z,7.63
2023-03-19T03:51:32.883Z,7.25
2023-03-19T03:56:34.662Z,8.20
2023-03-19T04:01:36.577Z,8.30
2023-03-19T04:06:57.487Z,8.98
2023-03-19T04:12:15.903Z,9.18
2023-03-19T04:17:18.173Z,9.10
2023-03-19T04:22:20.805Z,9.25
2023-03-19T04:27:22.374Z,9.95
2023-03-19T04:32:25.043Z,8.48
2023-03-19T04:37:27.127Z,9.00
2023-03-19T04:42:28.994Z,9.70
2023-03-19T04:52:49.665Z,9.20
2023-03-19T04:57:51.579Z,9.30
2023-03-19T05:02:55.875Z,9.35
2023-03-19T05:07:58.147Z,10.10
2023-03-19T05:13:00.789Z,9.52
2023-03-19T05:18:02.469Z,9.40
2023-03-19T05:23:12.280Z,9.27
2023-03-19T05:28:37.954Z,8.85
2023-03-19T05:33:39.861Z,10.02
2023-03-19T05:38:41.720Z,10.23
2023-03-19T05:43:48.899Z,9.10
2023-03-19T05:49:05.921Z,9.13
2023-03-19T05:54:07.600Z,9.52
2023-03-19T05:59:11.639Z,9.88
2023-03-19T06:04:18.013Z,9.50
2023-03-19T06:09:19.801Z,9.52
2023-03-19T06:19:55.410Z,7.90
2023-03-19T06:24:57.040Z,8.45
2023-03-19T06:29:58.622Z,8.32
2023-03-19T06:35:06.559Z,8.20
2023-03-19T06:40:08.863Z,8.70
2023-03-19T06:45:10.779Z,8.15
2023-03-19T06:50:13.124Z,7.43
2023-03-19T06:55:14.745Z,7.47
2023-03-19T07:00:18.590Z,7.03
2023-03-19T07:05:20.232Z,8.57
2023-03-19T07:10:22.547Z,8.68
2023-03-19T07:15:24.093Z,10.27
2023-03-19T07:20:25.883Z,10.40
2023-03-19T07:25:27.506Z,9.25
2023-03-19T07:30:29.030Z,8.43
2023-03-19T07:35:31.342Z,7.13
2023-03-19T07:40:33.258Z,6.43
2023-03-19T07:45:34.874Z,6.00
2023-03-19T07:50:36.526Z,5.82
2023-03-19T07:55:38.480Z,5.53
2023-03-19T08:00:40.020Z,5.78
2023-03-19T08:05:41.955Z,5.22
2023-03-19T08:10:43.785Z,4.78
2023-03-19T08:15:45.423Z,4.10
2023-03-19T08:20:46.993Z,4.35
2023-03-19T08:25:48.720Z,4.25
2023-03-19T08:30:50.276Z,4.13
2023-03-19T08:35:52.234Z,4.10
2023-03-19T08:41:02.030Z,3.83
2023-03-19T08:46:05.017Z,3.95
2023-03-19T08:51:06.550Z,3.20
2023-03-19T08:56:08.608Z,3.22
2023-03-19T09:01:12.865Z,3.00
2023-03-19T09:06:14.971Z,2.90
2023-03-19T09:11:18.019Z,2.50
2023-03-19T09:16:19.830Z,2.45
2023-03-19T09:21:21.541Z,2.30
2023-03-19T09:26:23.126Z,2.50
2023-03-19T09:31:24.792Z,2.13
2023-03-19T09:36:26.628Z,2.30
2023-03-19T09:41:31.444Z,2.45
2023-03-19T09:46:44.378Z,2.25
2023-03-19T09:52:09.713Z,2.22
2023-03-19T09:57:13.217Z,1.90
2023-03-19T10:02:22.460Z,2.70
2023-03-19T10:07:40.505Z,1.90
2023-03-19T10:12:55.679Z,2.28
2023-03-19T10:18:05.228Z,2.00
2023-03-19T10:23:18.923Z,1.70
2023-03-19T10:28:22.087Z,1.80
2023-03-19T10:33:26.437Z,1.73
2023-03-19T10:38:28.182Z,1.55
2023-03-19T10:43:31.622Z,1.50
2023-03-19T10:48:34.694Z,1.70
2023-03-19T10:53:38.128Z,1.65
2023-03-19T10:58:40.692Z,1.92
2023-03-19T11:03:42.336Z,1.33
2023-03-19T11:08:55.872Z,1.63
2023-03-19T11:13:57.860Z,1.40
2023-03-19T11:18:59.373Z,1.52
2023-03-19T11:24:03.448Z,1.35
2023-03-19T11:29:05.933Z,1.27
2023-03-19T11:34:33.989Z,1.00
2023-03-19T11:39:41.476Z,1.20
2023-03-19T11:45:18.736Z,1.30
2023-03-19T11:50:27.084Z,1.08
2023-03-19T11:55:42.179Z,1.63
2023-03-19T12:00:50.770Z,1.60
2023-03-19T12:06:28.501Z,1.55
2023-03-19T12:12:13.841Z,1.40
2023-03-19T12:17:37.909Z,1.23
2023-03-19T12:22:57.616Z,0.95
2023-03-19T12:28:18.061Z,1.50
2023-03-19T12:33:48.744Z,1.10
2023-03-19T12:38:56.257Z,1.63
2023-03-19T12:44:23.240Z,1.10
2023-03-19T12:49:30.326Z,1.00
2023-03-19T12:54:38.221Z,1.10
2023-03-19T12:59:54.626Z,1.08
2023-03-19T13:05:01.546Z,1.10
2023-03-19T13:10:09.620Z,1.00
2023-03-19T13:15:22.086Z,1.10
2023-03-19T13:20:51.041Z,0.98
2023-03-19T13:25:57.712Z,1.20
2023-03-19T13:31:19.283Z,1.27
2023-03-19T13:36:21.062Z,1.02
2023-03-19T13:41:39.630Z,0.90
2023-03-19T13:46:44.921Z,1.25
2023-03-19T13:51:50.575Z,1.20
2023-03-19T13:57:18.232Z,1.20
2023-03-19T14:02:22.978Z,1.10
2023-03-19T14:07:28.758Z,1.17
2023-03-19T14:12:34.273Z,1.52
2023-03-19T14:17:54.689Z,2.00
2023-03-19T14:23:08.886Z,1.42
2023-03-19T14:28:11.184Z,1.30
2023-03-19T14:33:44.388Z,1.30
2023-03-19T14:39:01.888Z,1.40
2023-03-19T14:44:15.862Z,1.00
2023-03-19T14:49:32.647Z,1.00
2023-03-19T14:54:49.137Z,1.35
2023-03-19T14:59:51.055Z,1.10
2023-03-19T15:04:54.911Z,1.02
2023-03-19T15:10:06.663Z,1.00
2023-03-19T15:15:32.508Z,1.20
2023-03-19T15:20:42.482Z,1.20
2023-03-19T15:25:47.842Z,0.98
2023-03-19T15:31:05.694Z,0.95
2023-03-19T15:36:17.774Z,1.17
2023-03-19T15:46:38.404Z,0.90
2023-03-19T15:51:41.232Z,0.90
2023-03-19T15:56:45.323Z,1.10
2023-03-19T16:01:50.313Z,1.08
2023-03-19T16:06:52.365Z,0.93
2023-03-19T16:11:57.609Z,1.33
2023-03-19T16:17:09.264Z,0.90
2023-03-19T16:22:16.949Z,1.00
2023-03-19T16:27:45.577Z,1.30
2023-03-19T16:32:58.433Z,1.35
2023-03-19T16:38:22.910Z,1.10
2023-03-19T16:43:34.328Z,2.30
2023-03-19T16:48:39.236Z,2.58
2023-03-19T16:53:41.152Z,1.17
2023-03-19T16:58:44.199Z,1.35
2023-03-19T17:03:49.538Z,1.10
2023-03-19T17:08:54.953Z,0.75
2023-03-19T17:14:00.632Z,0.80
2023-03-19T17:19:04.728Z,0.93
2023-03-19T17:24:34.307Z,0.77
2023-03-19T17:29:36.799Z,0.70
2023-03-19T17:34:40.481Z,0.95
2023-03-19T17:39:45.768Z,1.35
2023-03-19T17:44:49.678Z,1.00
2023-03-19T17:49:52.415Z,0.93
2023-03-19T17:54:53.957Z,1.15
2023-03-19T17:59:55.577Z,1.50
2023-03-19T18:04:57.915Z,1.17
2023-03-19T18:09:59.399Z,1.38
2023-03-19T18:15:00.921Z,1.45
2023-03-19T18:20:07.182Z,1.60
2023-03-19T18:25:18.447Z,2.50
2023-03-19T18:30:25.880Z,2.30
2023-03-19T18:35:37.073Z,2.13
2023-03-19T18:40:40.927Z,1.92
2023-03-19T18:45:45.984Z,1.67
2023-03-19T18:50:48.483Z,1.50
2023-03-19T18:55:53.715Z,1.70
2023-03-19T19:00:58.480Z,1.55
2023-03-19T19:06:02.521Z,2.38
2023-03-19T19:11:09.335Z,2.17
2023-03-19T19:16:20.571Z,1.90
2023-03-19T19:21:22.212Z,3.95
2023-03-19T19:26:29.696Z,5.00
2023-03-19T19:31:33.927Z,4.95
2023-03-19T19:36:40.579Z,4.30
2023-03-19T19:41:43.771Z,6.10
2023-03-19T19:46:45.726Z,5.38
2023-03-19T19:51:49.730Z,6.03
2023-03-19T19:56:52.233Z,5.82
2023-03-19T20:01:55.217Z,5.88
2023-03-19T20:06:59.132Z,2.65
2023-03-19T20:12:09.671Z,2.45
2023-03-19T20:17:16.207Z,2.00
2023-03-19T20:22:20.171Z,2.25
2023-03-19T20:27:26.380Z,2.42
2023-03-19T20:32:36.818Z,2.30
2023-03-19T20:37:39.796Z,2.15
2023-03-19T20:42:43.294Z,2.10
2023-03-19T20:47:44.998Z,1.83
2023-03-19T20:52:49.184Z,1.88
2023-03-19T20:57:56.614Z,1.77
2023-03-19T21:03:01.961Z,1.63
2023-03-19T21:08:17.357Z,1.80
2023-03-19T21:13:19.388Z,2.60
2023-03-19T21:18:30.263Z,2.30
2023-03-19T21:23:38.687Z,2.33
2023-03-19T21:28:45.427Z,2.43
2023-03-19T21:33:51.567Z,1.83
2023-03-19T21:38:53.228Z,2.20
2023-03-19T21:43:59.609Z,2.20
2023-03-19T21:49:03.793Z,2.08
2023-03-19T21:54:05.878Z,2.60
2023-03-19T21:59:16.601Z,5.15
2023-03-19T22:04:23.005Z,9.98
2023-03-19T22:09:29.497Z,7.28
2023-03-19T22:14:31.085Z,6.68
2023-03-19T22:19:32.656Z,6.70
2023-03-19T22:24:38.630Z,6.05
2023-03-19T22:29:40.798Z,5.75
2023-03-19T22:34:47.590Z,3.20
2023-03-19T22:39:49.251Z,3.22
2023-03-19T22:44:54.563Z,2.90
2023-03-19T22:49:56.243Z,3.03
2023-03-19T22:54:57.878Z,14.38
2023-03-19T22:59:59.477Z,5.40
2023-03-19T23:05:01.991Z,8.02
2023-03-19T23:10:15.498Z,9.63
2023-03-19T23:15:20.921Z,7.82
2023-03-19T23:20:26.085Z,6.20
2023-03-19T23:25:33.209Z,3.45
2023-03-19T23:30:37.171Z,4.35
2023-03-19T23:35:40.202Z,3.65
2023-03-19T23:40:46.208Z,4.10
2023-03-19T23:45:52.587Z,3.70
2023-03-19T23:56:07.713Z,3.28
